Time;durP1;ratioP1;P1;durP2;ratioP2;P2;SDS_P1;SDS_P2;PMS_P1;PMS_P2;Temp;Humidity;BMP_temperature;BMP_pressure;BME280_temperature;BME280_humidity;BME280_pressure;Samples;Min_cycle;Max_cycle;Signal;HPM_P1;HPM_P2
2021/09/05 00:01:44;;;;;;;21.98;10.48;;;;;;;13.75;90.60;102161.50;6180539;23;20005;-77
2021/09/05 00:04:09;;;;;;;22.80;9.57;;;;;;;13.73;90.63;102161.47;6185984;23;20072;-78
2021/09/05 00:06:35;;;;;;;22.85;9.20;;;;;;;13.71;90.56;102157.88;6185968;23;20036;-76
2021/09/05 00:09:01;;;;;;;20.10;10.30;;;;;;;13.66;90.85;102149.84;6186904;23;20373;-77
2021/09/05 00:11:26;;;;;;;25.63;9.02;;;;;;;13.66;90.45;102152.47;6186620;23;20080;-77
2021/09/05 00:14:11;;;;;;;16.83;8.70;;;;;;;13.66;90.79;102163.06;6186315;23;20009;-77
2021/09/05 00:16:37;;;;;;;23.50;10.05;;;;;;;13.65;90.74;102155.97;6186259;23;20336;-77
2021/09/05 00:19:03;;;;;;;16.10;9.00;;;;;;;13.66;90.64;102156.88;6186508;23;20005;-77
2021/09/05 00:21:28;;;;;;;18.55;9.25;;;;;;;13.62;90.76;102155.91;6185900;23;20021;-78
2021/09/05 00:23:53;;;;;;;16.80;9.15;;;;;;;13.56;90.94;102160.13;6187641;23;20013;-78
2021/09/05 00:26:19;;;;;;;16.38;9.10;;;;;;;13.47;90.88;102153.75;6186100;23;20076;-78
2021/09/05 00:28:45;;;;;;;20.63;9.73;;;;;;;13.43;90.93;102159.81;6185672;23;20083;-77
2021/09/05 00:31:10;;;;;;;24.70;9.40;;;;;;;13.45;90.89;102162.50;6186201;23;20013;-78
2021/09/05 00:34:00;;;;;;;19.05;9.85;;;;;;;13.41;91.12;102161.53;6186270;23;20005;-78
2021/09/05 00:36:25;;;;;;;29.15;10.75;;;;;;;13.38;91.24;102155.28;6186127;23;20008;-79
2021/09/05 00:38:51;;;;;;;25.10;10.18;;;;;;;13.36;90.88;102160.53;6186821;23;20005;-78
2021/09/05 00:41:16;;;;;;;15.23;9.40;;;;;;;13.41;91.12;102155.34;6186901;23;20011;-77
2021/09/05 00:44:14;;;;;;;18.05;8.98;;;;;;;13.40;90.86;102154.47;6187109;23;20027;-76
2021/09/05 00:46:59;;;;;;;21.13;9.45;;;;;;;13.33;91.15;102160.41;6185693;23;20391;-78
2021/09/05 00:49:25;;;;;;;20.05;9.23;;;;;;;13.36;91.13;102157.88;6175091;23;20087;-76
2021/09/05 00:52:11;;;;;;;16.40;8.35;;;;;;;13.37;90.94;102162.28;6186809;23;20451;-78
2021/09/05 00:54:56;;;;;;;18.08;9.45;;;;;;;13.31;91.16;102155.06;6185677;23;20116;-78
2021/09/05 00:57:44;;;;;;;19.35;9.27;;;;;;;13.26;91.11;102161.09;6185784;23;20336;-78
2021/09/05 01:00:10;;;;;;;19.08;9.18;;;;;;;13.23;91.20;102161.03;6180870;23;20089;-77
2021/09/05 01:02:36;;;;;;;19.58;9.20;;;;;;;13.23;91.17;102161.03;6186455;23;20021;-79
2021/09/05 01:05:01;;;;;;;21.70;10.40;;;;;;;13.16;91.59;102166.13;6159457;23;20371;-77
2021/09/05 01:07:50;;;;;;;20.35;9.35;;;;;;;13.24;91.60;102168.06;6186065;23;20012;-77
2021/09/05 01:10:15;;;;;;;19.73;10.25;;;;;;;13.16;91.60;102163.47;6186062;23;20021;-78
2021/09/05 01:12:41;;;;;;;24.00;10.70;;;;;;;13.09;91.86;102169.47;6185623;23;20381;-79
2021/09/05 01:15:07;;;;;;;21.33;10.00;;;;;;;13.07;91.88;102165.00;6159510;23;20084;-77
2021/09/05 01:17:56;;;;;;;21.83;10.60;;;;;;;12.99;92.35;102162.13;6159598;23;20031;-77
2021/09/05 01:20:21;;;;;;;18.23;9.95;;;;;;;12.97;91.83;102161.22;6184671;23;20041;-78
2021/09/05 01:22:46;;;;;;;20.30;9.50;;;;;;;12.93;92.20;102167.25;6185336;23;20424;-77
2021/09/05 01:25:12;;;;;;;24.65;11.13;;;;;;;12.87;92.15;102167.06;6185897;23;20001;-79
2021/09/05 01:27:38;;;;;;;18.15;10.75;;;;;;;12.83;92.25;102176.63;6186148;23;20385;-77
2021/09/05 01:30:04;;;;;;;22.55;10.23;;;;;;;12.85;92.25;102168.78;6184889;23;20005;-78
2021/09/05 01:32:29;;;;;;;27.48;11.18;;;;;;;12.84;92.45;102177.56;6185831;23;20009;-76
2021/09/05 01:34:55;;;;;;;29.27;11.00;;;;;;;12.78;93.13;102181.81;6185847;23;20440;-78
2021/09/05 01:37:20;;;;;;;19.48;9.52;;;;;;;12.77;92.91;102172.09;6159203;23;20088;-77
2021/09/05 01:40:06;;;;;;;15.88;9.32;;;;;;;12.79;92.39;102173.03;6159327;23;20033;-77
2021/09/05 01:42:31;;;;;;;26.92;11.55;;;;;;;12.75;92.65;102167.59;6186243;23;20024;-77
2021/09/05 01:44:57;;;;;;;27.05;11.05;;;;;;;12.76;92.59;102170.28;6185936;23;20012;-76
2021/09/05 01:47:22;;;;;;;26.63;11.00;;;;;;;12.71;93.17;102176.28;6185954;23;20009;-79
2021/09/05 01:49:48;;;;;;;26.80;11.57;;;;;;;12.68;93.00;102176.22;6185800;23;20324;-78
2021/09/05 01:52:13;;;;;;;21.95;10.52;;;;;;;12.65;92.72;102171.72;6184207;23;20008;-76
2021/09/05 01:54:39;;;;;;;23.67;11.25;;;;;;;12.58;93.49;102183.84;6186105;23;20012;-78
2021/09/05 01:57:04;;;;;;;21.38;10.82;;;;;;;12.52;93.53;102185.41;6186560;23;20008;-76
2021/09/05 01:59:30;;;;;;;27.20;11.00;;;;;;;12.46;93.56;102184.38;6185000;23;20044;-76
2021/09/05 02:01:56;;;;;;;18.10;9.95;;;;;;;12.41;93.61;102183.38;6180067;23;20431;-77
2021/09/05 02:04:41;;;;;;;27.27;11.98;;;;;;;12.35;93.91;102188.44;6185295;23;20009;-77
2021/09/05 02:07:06;;;;;;;20.90;10.43;;;;;;;12.32;93.82;102191.00;6185801;23;20013;-77
2021/09/05 02:09:32;;;;;;;26.50;10.93;;;;;;;12.26;94.19;102188.16;6185544;23;20309;-77
2021/09/05 02:11:57;;;;;;;24.75;10.90;;;;;;;12.21;93.96;102195.03;6186378;23;20084;-77
2021/09/05 02:14:22;;;;;;;22.63;10.57;;;;;;;12.16;94.11;102197.53;6184467;23;20036;-77
2021/09/05 02:16:48;;;;;;;22.75;9.98;;;;;;;12.11;93.72;102193.84;6185486;23;20056;-77
2021/09/05 02:19:13;;;;;;;24.38;11.63;;;;;;;12.08;94.05;102201.66;6185599;23;20354;-77
2021/09/05 02:21:39;;;;;;;26.52;11.77;;;;;;;12.01;94.34;102203.22;6185014;23;20467;-77
2021/09/05 02:24:04;;;;;;;23.33;11.48;;;;;;;11.93;94.79;102205.56;6185450;23;20417;-78
2021/09/05 02:26:30;;;;;;;24.15;11.77;;;;;;;11.87;94.86;102205.38;6158261;23;20009;-78
2021/09/05 02:29:15;;;;;;;23.13;11.10;;;;;;;11.85;94.77;102216.72;6185413;23;20008;-77
2021/09/05 02:31:40;;;;;;;26.17;11.45;;;;;;;11.82;94.20;102209.59;6184987;23;20009;-76
2021/09/05 02:34:06;;;;;;;23.63;10.88;;;;;;;11.85;94.08;102207.03;6185356;23;20063;-77
2021/09/05 02:36:31;;;;;;;22.42;12.18;;;;;;;11.88;94.81;102212.44;6158941;23;20295;-76
2021/09/05 02:38:57;;;;;;;26.30;11.95;;;;;;;11.93;95.19;102209.94;6185123;23;20380;-77
2021/09/05 02:41:22;;;;;;;33.17;12.82;;;;;;;11.90;95.38;102213.38;6185321;23;20085;-77
2021/09/05 02:43:53;;;;;;;23.95;11.85;;;;;;;11.91;95.28;102214.25;6185135;23;20535;-78
2021/09/05 02:46:38;;;;;;;25.23;11.85;;;;;;;11.85;95.24;102201.75;6185778;23;20032;-77
2021/09/05 02:49:04;;;;;;;28.50;11.23;;;;;;;11.80;95.23;102203.34;6158485;23;20016;-76
2021/09/05 02:51:29;;;;;;;23.30;12.73;;;;;;;11.77;94.65;102208.53;6184916;23;20365;-75
2021/09/05 02:53:55;;;;;;;23.95;12.45;;;;;;;11.75;94.92;102205.84;6185494;23;20080;-77
2021/09/05 02:56:20;;;;;;;28.75;12.65;;;;;;;11.74;94.72;102204.03;6184936;23;20317;-78
2021/09/05 02:58:45;;;;;;;31.10;12.70;;;;;;;11.72;94.87;102205.75;6184820;23;20025;-77
2021/09/05 03:01:13;;;;;;;23.27;11.98;;;;;;;11.68;95.28;102198.56;6179696;23;20020;-77
2021/09/05 03:03:39;;;;;;;25.08;11.48;;;;;;;11.66;95.22;102202.88;6184443;23;20063;-78
2021/09/05 03:06:04;;;;;;;25.83;11.82;;;;;;;11.62;95.24;102198.34;6184717;23;20427;-77
2021/09/05 03:08:29;;;;;;;29.02;12.35;;;;;;;11.61;95.05;102200.13;6185032;23;20016;-77
2021/09/05 03:10:55;;;;;;;30.30;12.32;;;;;;;11.59;95.25;102200.91;6184505;23;20004;-76
2021/09/05 03:13:20;;;;;;;29.17;12.90;;;;;;;11.56;95.30;102203.44;6185019;23;20009;-77
2021/09/05 03:15:46;;;;;;;29.88;13.45;;;;;;;11.54;95.38;102195.44;6185257;23;20324;-77
2021/09/05 03:18:12;;;;;;;26.80;12.25;;;;;;;11.54;95.66;102189.28;6184857;23;20084;-79
2021/09/05 03:20:37;;;;;;;30.90;12.02;;;;;;;11.51;95.86;102197.09;6157707;23;20021;-78
2021/09/05 03:23:10;;;;;;;31.35;12.55;;;;;;;11.51;95.52;102199.75;6185045;23;20080;-79
2021/09/05 03:25:35;;;;;;;30.98;12.90;;;;;;;11.50;95.67;102201.47;6184724;23;20013;-78
2021/09/05 03:28:01;;;;;;;25.55;11.68;;;;;;;11.48;95.72;102201.41;6185488;23;20008;-78
2021/09/05 03:30:26;;;;;;;29.15;12.55;;;;;;;11.47;95.68;102196.97;6184979;23;20036;-78
2021/09/05 03:32:52;;;;;;;27.67;12.25;;;;;;;11.46;95.80;102196.94;6184726;23;20005;-77
2021/09/05 03:35:17;;;;;;;30.85;13.35;;;;;;;11.44;95.88;102202.16;6158155;23;20494;-77
2021/09/05 03:37:43;;;;;;;24.65;12.32;;;;;;;11.42;96.09;102201.22;6184831;23;20005;-77
2021/09/05 03:40:29;;;;;;;31.42;13.25;;;;;;;11.39;96.37;102195.81;6184875;23;20028;-77
2021/09/05 03:42:54;;;;;;;31.67;12.48;;;;;;;11.38;95.73;102199.31;6184985;23;20013;-79
2021/09/05 03:45:20;;;;;;;29.00;13.07;;;;;;;11.35;96.54;102198.31;6184871;23;20012;-79
2021/09/05 03:47:45;;;;;;;27.17;14.18;;;;;;;11.30;96.55;102196.41;6185157;23;20012;-77
2021/09/05 03:50:11;;;;;;;30.05;13.90;;;;;;;11.28;96.57;102197.19;6184493;23;20416;-76
2021/09/05 03:52:38;;;;;;;33.25;13.80;;;;;;;11.24;96.29;102188.25;6185157;23;20009;-79
2021/09/05 03:55:05;;;;;;;25.92;12.68;;;;;;;11.19;96.48;102194.22;6184554;23;20009;-78
2021/09/05 03:57:31;;;;;;;24.88;12.73;;;;;;;11.13;96.07;102193.16;6184219;23;20067;-77
2021/09/05 03:59:56;;;;;;;35.17;14.43;;;;;;;11.09;96.20;102193.88;6157244;23;20084;-78
2021/09/05 04:02:22;;;;;;;27.70;12.35;;;;;;;11.10;96.51;102203.59;6179545;23;20455;-76
2021/09/05 04:04:48;;;;;;;27.17;12.95;;;;;;;11.06;96.28;102196.41;6184781;23;20008;-78
2021/09/05 04:07:17;;;;;;;29.33;12.43;;;;;;;11.02;96.83;102204.16;6184971;23;20428;-78
2021/09/05 04:10:09;;;;;;;31.52;12.63;;;;;;;10.97;96.74;102201.34;6159077;23;20013;-78
2021/09/05 04:12:54;;;;;;;30.15;13.05;;;;;;;10.89;96.89;102197.53;6185243;23;20082;-76
2021/09/05 04:15:20;;;;;;;25.65;12.10;;;;;;;10.83;97.00;102202.59;6184797;23;20033;-77
2021/09/05 04:17:49;;;;;;;27.30;13.13;;;;;;;10.76;97.15;102202.34;6186476;23;20043;-77
2021/09/05 04:20:16;;;;;;;28.67;12.05;;;;;;;10.73;96.87;102203.94;6186110;23;20047;-77
2021/09/05 04:22:41;;;;;;;28.83;13.82;;;;;;;10.68;97.21;102209.06;6186329;23;20009;-77
2021/09/05 04:25:07;;;;;;;30.48;14.02;;;;;;;10.63;97.36;102203.63;6186418;23;20080;-77
2021/09/05 04:27:33;;;;;;;34.60;13.75;;;;;;;10.59;97.25;102204.34;6186998;23;20013;-77
2021/09/05 04:29:58;;;;;;;28.50;12.43;;;;;;;10.59;96.44;102198.16;6185176;23;20451;-79
2021/09/05 04:32:24;;;;;;;29.40;12.75;;;;;;;10.60;96.62;102199.97;6186298;23;20097;-76
2021/09/05 04:34:50;;;;;;;33.85;13.80;;;;;;;10.59;97.15;102206.06;6186479;23;20009;-78
2021/09/05 04:37:58;;;;;;;31.00;14.23;;;;;;;10.58;97.54;102206.91;6187162;23;20321;-77
2021/09/05 04:40:23;;;;;;;36.60;13.82;;;;;;;10.54;97.60;102210.25;6184000;23;20441;-79
2021/09/05 04:42:49;;;;;;;25.67;12.57;;;;;;;10.53;96.97;102205.84;6186420;23;20080;-78
2021/09/05 04:45:15;;;;;;;28.75;13.55;;;;;;;10.54;96.95;102200.63;6186045;23;20059;-77
2021/09/05 04:47:40;;;;;;;36.08;14.95;;;;;;;10.57;96.93;102207.75;6186308;23;20012;-77
2021/09/05 04:50:06;;;;;;;32.92;14.52;;;;;;;10.62;96.67;102211.44;6186286;23;20455;-77
2021/09/05 04:52:51;;;;;;;31.45;14.45;;;;;;;10.61;97.46;102212.31;6186703;23;20016;-77
2021/09/05 04:55:17;;;;;;;30.42;13.60;;;;;;;10.61;97.42;102209.66;6186454;23;20353;-77
2021/09/05 04:57:43;;;;;;;30.50;13.30;;;;;;;10.62;96.80;102214.06;6186148;23;20072;-78
2021/09/05 05:00:09;;;;;;;36.00;14.15;;;;;;;10.64;96.90;102209.78;6181030;23;20048;-76
2021/09/05 05:02:34;;;;;;;35.17;14.27;;;;;;;10.67;96.41;102209.00;6186503;23;20032;-79
2021/09/05 05:05:00;;;;;;;28.58;14.07;;;;;;;10.71;96.61;102213.53;6186012;23;20012;-77
2021/09/05 05:07:25;;;;;;;28.63;13.63;;;;;;;10.71;97.09;102214.44;6186486;23;20080;-78
2021/09/05 05:09:53;;;;;;;31.35;13.85;;;;;;;10.70;97.05;102220.56;6185955;23;20017;-78
2021/09/05 05:12:22;;;;;;;29.55;13.35;;;;;;;10.70;97.64;102223.19;6186265;23;20058;-77
2021/09/05 05:14:47;;;;;;;31.38;13.80;;;;;;;10.71;97.60;102232.84;6186109;23;20385;-76
2021/09/05 05:17:12;;;;;;;32.55;14.30;;;;;;;10.69;97.98;102233.63;6186491;23;20013;-77
2021/09/05 05:19:38;;;;;;;31.73;14.93;;;;;;;10.69;98.08;102234.56;6186458;23;20317;-78
2021/09/05 05:22:24;;;;;;;35.50;13.48;;;;;;;10.70;97.73;102228.47;6185947;23;20428;-79
2021/09/05 05:24:52;;;;;;;31.33;12.30;;;;;;;10.75;97.24;102240.03;6185433;23;20445;-79
2021/09/05 05:27:37;;;;;;;24.63;12.65;;;;;;;10.78;97.15;102231.34;6184806;23;20318;-78
2021/09/05 05:30:04;;;;;;;28.13;13.43;;;;;;;10.79;97.31;102238.44;6186352;23;20011;-78
2021/09/05 05:32:30;;;;;;;28.40;14.10;;;;;;;10.78;97.38;102236.63;6186551;23;20005;-79
2021/09/05 05:34:55;;;;;;;31.35;14.52;;;;;;;10.76;97.47;102241.84;6185646;23;20432;-78
2021/09/05 05:37:21;;;;;;;33.67;14.10;;;;;;;10.75;97.94;102242.66;6186072;23;20055;-77
2021/09/05 05:39:46;;;;;;;34.58;15.40;;;;;;;10.76;97.98;102249.72;6185581;23;20009;-77
2021/09/05 05:42:11;;;;;;;32.40;14.57;;;;;;;10.78;97.77;102250.72;6185608;23;20051;-77
2021/09/05 05:44:37;;;;;;;33.67;14.65;;;;;;;10.78;97.78;102245.44;6186452;23;20008;-77
2021/09/05 05:47:02;;;;;;;33.85;13.95;;;;;;;10.78;98.29;102252.44;6186542;23;20072;-77
2021/09/05 05:49:28;;;;;;;34.22;13.88;;;;;;;10.82;97.97;102253.44;6185086;23;20027;-77
2021/09/05 05:51:53;;;;;;;28.40;13.80;;;;;;;10.82;97.99;102253.44;6185558;23;20004;-77
2021/09/05 05:54:19;;;;;;;33.53;15.18;;;;;;;10.84;97.84;102257.03;6186350;23;20077;-78
2021/09/05 05:56:44;;;;;;;35.25;14.82;;;;;;;10.86;97.85;102253.59;6185576;23;20368;-78
2021/09/05 05:59:11;;;;;;;31.20;14.88;;;;;;;10.88;97.87;102262.47;6185453;23;20444;-78
2021/09/05 06:01:40;;;;;;;27.23;14.40;;;;;;;10.91;98.13;102259.97;6180233;23;20009;-78
2021/09/05 06:04:06;;;;;;;34.03;14.80;;;;;;;10.94;98.30;102274.97;6185708;23;20075;-77
2021/09/05 06:06:33;;;;;;;30.85;14.73;;;;;;;10.96;98.27;102270.69;6185123;23;20001;-79
2021/09/05 06:08:58;;;;;;;38.05;14.93;;;;;;;11.01;98.15;102268.22;6185676;23;20429;-77
2021/09/05 06:11:24;;;;;;;26.08;13.98;;;;;;;11.07;98.27;102268.44;6184979;23;20001;-77
2021/09/05 06:13:49;;;;;;;29.58;14.32;;;;;;;11.15;97.85;102259.09;6185797;23;20001;-77
2021/09/05 06:16:14;;;;;;;31.63;15.40;;;;;;;11.24;97.50;102267.31;6184405;23;20004;-77
2021/09/05 06:18:40;;;;;;;32.85;16.25;;;;;;;11.33;97.73;102269.41;6185313;23;20009;-79
2021/09/05 06:21:05;;;;;;;35.25;14.63;;;;;;;11.38;97.74;102272.19;6184426;23;20451;-78
2021/09/05 06:23:31;;;;;;;31.70;15.20;;;;;;;11.43;97.83;102273.25;6185595;23;20005;-77
2021/09/05 06:25:56;;;;;;;33.25;15.70;;;;;;;11.51;97.82;102278.81;6185357;23;19997;-78
2021/09/05 06:28:22;;;;;;;36.78;16.13;;;;;;;11.58;97.97;102280.81;6185121;23;20016;-77
2021/09/05 06:30:48;;;;;;;31.85;15.27;;;;;;;11.67;97.94;102285.53;6158900;23;20454;-77
2021/09/05 06:33:15;;;;;;;34.80;16.15;;;;;;;11.75;97.75;102282.31;6185603;23;20122;-77
2021/09/05 06:35:41;;;;;;;36.05;14.98;;;;;;;11.85;97.71;102277.38;6184360;23;20017;-78
2021/09/05 06:38:06;;;;;;;28.13;14.90;;;;;;;11.93;97.81;102283.81;6184716;23;20076;-77
2021/09/05 06:40:32;;;;;;;30.23;15.35;;;;;;;12.03;97.44;102280.69;6185701;23;20009;-78
2021/09/05 06:42:57;;;;;;;32.95;14.73;;;;;;;12.13;97.13;102282.75;6185185;23;20358;-77
2021/09/05 06:45:23;;;;;;;33.67;14.95;;;;;;;12.25;97.10;102284.91;6185200;23;20056;-79
2021/09/05 06:47:48;;;;;;;34.10;14.98;;;;;;;12.35;96.87;102286.09;6185107;23;20017;-78
2021/09/05 06:50:14;;;;;;;27.33;14.68;;;;;;;12.45;96.94;102284.66;6185228;23;20028;-78
2021/09/05 06:52:59;;;;;;;36.08;14.23;;;;;;;12.58;96.67;102292.13;6158227;23;20005;-79
2021/09/05 06:55:25;;;;;;;36.45;15.05;;;;;;;12.69;96.47;102289.81;6176820;23;20445;-78
2021/09/05 06:57:51;;;;;;;29.33;15.27;;;;;;;12.76;96.41;102297.06;6180024;23;20012;-78
2021/09/05 07:00:16;;;;;;;25.90;14.20;;;;;;;12.85;96.18;102295.59;6177623;23;20009;-78
2021/09/05 07:02:42;;;;;;;33.47;14.95;;;;;;;12.97;96.25;102303.88;6182531;23;20012;-81
2021/09/05 07:05:27;;;;;;;26.25;14.15;;;;;;;13.07;96.18;102302.41;6180254;23;20004;-77
2021/09/05 07:07:53;;;;;;;29.65;14.10;;;;;;;13.20;96.04;102312.50;6179349;23;20309;-79
2021/09/05 07:10:18;;;;;;;30.63;14.77;;;;;;;13.29;95.78;102303.91;6182771;23;20016;-80
2021/09/05 07:12:44;;;;;;;28.88;15.00;;;;;;;13.42;95.01;102305.22;6182203;23;20051;-79
2021/09/05 07:15:10;;;;;;;22.15;12.77;;;;;;;13.58;94.84;102311.81;6182900;23;20056;-78
2021/09/05 07:17:35;;;;;;;23.52;12.55;;;;;;;13.74;94.66;102307.84;6182311;23;20290;-76
2021/09/05 07:20:01;;;;;;;34.30;13.70;;;;;;;13.85;94.50;102310.78;6182834;23;20009;-77
2021/09/05 07:22:26;;;;;;;26.13;13.82;;;;;;;13.98;93.55;102300.59;6182854;23;20016;-78
2021/09/05 07:24:52;;;;;;;22.40;12.25;;;;;;;14.11;92.43;102300.88;6179839;23;20005;-76
2021/09/05 07:27:17;;;;;;;22.52;11.63;;;;;;;14.20;92.53;102302.84;6178752;23;20314;-82
2021/09/05 07:30:04;;;;;;;20.55;11.52;;;;;;;14.34;91.72;102296.16;6184420;23;20060;-79
2021/09/05 07:32:29;;;;;;;26.10;11.50;;;;;;;14.45;91.04;102296.41;6178849;23;20017;-78
2021/09/05 07:34:55;;;;;;;22.33;11.13;;;;;;;14.59;89.52;102287.03;6182963;23;20005;-78
2021/09/05 07:37:20;;;;;;;24.63;11.32;;;;;;;14.71;86.81;102293.53;6183230;23;20032;-77
2021/09/05 07:40:06;;;;;;;20.85;10.82;;;;;;;14.80;86.38;102286.66;6180429;23;20009;-79
2021/09/05 07:42:32;;;;;;;20.40;10.88;;;;;;;14.92;85.78;102291.34;6180779;23;20341;-77
2021/09/05 07:44:58;;;;;;;24.00;11.13;;;;;;;15.01;85.71;102291.53;6183223;23;20016;-78
2021/09/05 07:47:24;;;;;;;20.08;10.77;;;;;;;15.10;85.78;102300.56;6180729;23;20005;-79
2021/09/05 07:49:53;;;;;;;20.27;11.00;;;;;;;15.14;86.24;102300.66;6183832;23;20096;-80
2021/09/05 07:52:18;;;;;;;18.95;11.98;;;;;;;15.26;85.02;102296.44;6185502;23;20023;-79
2021/09/05 07:54:44;;;;;;;21.70;11.43;;;;;;;15.32;85.76;102309.84;6185475;23;20028;-78
2021/09/05 07:57:13;;;;;;;22.73;11.13;;;;;;;15.39;84.86;102301.16;6185338;23;20000;-77
2021/09/05 07:59:39;;;;;;;24.35;10.10;;;;;;;15.45;84.73;102303.94;6181358;23;20008;-79
2021/09/05 08:02:04;;;;;;;21.25;11.30;;;;;;;15.53;83.66;102306.72;6176875;23;20031;-78
2021/09/05 08:04:30;;;;;;;20.52;10.73;;;;;;;15.58;83.68;102315.66;6185477;23;20339;-78
2021/09/05 08:06:55;;;;;;;23.80;11.90;;;;;;;15.66;84.96;102322.00;6185395;23;20417;-78
2021/09/05 08:09:21;;;;;;;18.40;10.40;;;;;;;15.72;84.63;102320.34;6184970;23;20013;-79
2021/09/05 08:11:46;;;;;;;22.40;11.25;;;;;;;15.82;84.18;102315.28;6184768;23;20028;-80
2021/09/05 08:14:12;;;;;;;18.48;11.23;;;;;;;15.90;83.97;102312.78;6185880;23;20005;-79
2021/09/05 08:16:38;;;;;;;19.45;11.13;;;;;;;16.00;83.83;102324.44;6184925;23;20083;-80
2021/09/05 08:19:24;;;;;;;18.30;11.50;;;;;;;16.12;83.02;102319.34;6185459;23;20005;-79
2021/09/05 08:21:49;;;;;;;20.38;10.57;;;;;;;16.18;82.85;102319.47;6185141;23;20017;-80
2021/09/05 08:24:14;;;;;;;18.75;10.23;;;;;;;16.27;82.88;102324.03;6182996;23;20015;-80
2021/09/05 08:26:40;;;;;;;20.65;10.82;;;;;;;16.36;82.39;102317.97;6180649;23;20088;-79
2021/09/05 08:29:25;;;;;;;18.05;10.63;;;;;;;16.55;81.86;102318.25;6182923;23;20001;-78
2021/09/05 08:32:11;;;;;;;18.40;10.73;;;;;;;16.71;80.05;102319.38;6158688;23;20008;-80
2021/09/05 08:34:36;;;;;;;17.45;10.50;;;;;;;16.84;78.66;102316.91;6183490;23;20027;-79
2021/09/05 08:37:03;;;;;;;20.98;10.10;;;;;;;17.00;78.12;102317.19;6184711;23;20017;-79
2021/09/05 08:39:29;;;;;;;18.23;9.90;;;;;;;17.12;77.24;102317.34;6184835;23;20132;-80
2021/09/05 08:42:15;;;;;;;19.83;9.93;;;;;;;17.29;76.71;102311.34;6185510;23;20025;-80
2021/09/05 08:44:41;;;;;;;22.33;9.35;;;;;;;17.49;76.44;102317.78;6185620;23;20040;-81
2021/09/05 08:47:08;;;;;;;20.48;9.60;;;;;;;17.73;74.98;102320.69;6185416;23;20037;-74
2021/09/05 08:49:36;;;;;;;17.50;9.90;;;;;;;17.91;73.02;102320.00;6186412;23;20005;-74
2021/09/05 08:52:04;;;;;;;15.30;8.32;;;;;;;18.22;72.14;102317.63;6186061;23;20083;-75
2021/09/05 08:54:31;;;;;;;12.50;7.85;;;;;;;18.47;69.84;102308.97;6185436;23;20434;-77
2021/09/05 08:56:57;;;;;;;16.38;7.85;;;;;;;18.60;69.42;102312.63;6186406;23;20340;-77
2021/09/05 08:59:22;;;;;;;14.85;8.00;;;;;;;18.76;68.25;102318.03;6185190;23;20005;-77
2021/09/05 09:01:56;;;;;;;15.88;8.15;;;;;;;18.84;67.51;102313.63;6180138;23;20009;-75
2021/09/05 09:04:23;;;;;;;12.60;8.10;;;;;;;18.97;67.27;102314.66;6185599;23;20005;-75
2021/09/05 09:06:49;;;;;;;16.95;9.18;;;;;;;19.00;67.72;102325.31;6185597;23;20012;-75
2021/09/05 09:09:15;;;;;;;14.98;8.40;;;;;;;19.15;67.46;102320.09;6184310;23;20001;-76
2021/09/05 09:12:00;;;;;;;13.43;7.60;;;;;;;19.38;66.75;102316.59;6185153;23;20017;-76
2021/09/05 09:15:16;;;;;;;17.45;7.95;;;;;;;19.49;65.26;102313.97;6184706;23;20001;-77
2021/09/05 09:17:42;;;;;;;18.15;9.25;;;;;;;19.55;63.53;102312.19;6184673;23;20013;-76
2021/09/05 09:20:40;;;;;;;12.88;8.30;;;;;;;19.93;62.95;102313.19;6185697;23;20421;-77
2021/09/05 09:23:38;;;;;;;15.45;9.23;;;;;;;20.57;62.50;102315.88;6185148;23;20005;-76
2021/09/05 09:26:28;;;;;;;13.45;8.18;;;;;;;20.78;61.57;102305.16;6185587;23;20336;-76
2021/09/05 09:28:56;;;;;;;14.75;8.23;;;;;;;21.12;60.08;102294.34;6183748;23;20013;-77
2021/09/05 09:31:26;;;;;;;19.17;9.13;;;;;;;21.48;61.01;102299.50;6184773;23;20318;-80
2021/09/05 09:33:52;;;;;;;17.00;8.77;;;;;;;21.62;60.79;102299.47;6184959;23;20008;-79
2021/09/05 09:36:22;;;;;;;17.38;8.73;;;;;;;21.92;58.96;102297.47;6184949;23;20671;-78
2021/09/05 09:38:56;;;;;;;18.65;8.68;;;;;;;22.11;57.94;102283.03;6157696;23;20015;-80
2021/09/05 09:41:43;;;;;;;15.65;8.98;;;;;;;22.53;55.58;102282.63;6185933;23;20372;-81
2021/09/05 09:44:13;;;;;;;15.13;8.13;;;;;;;22.97;54.04;102285.75;6184651;23;20310;-79
2021/09/05 09:46:40;;;;;;;17.38;8.05;;;;;;;23.29;53.00;102277.31;6185974;23;20009;-79
2021/09/05 09:49:07;;;;;;;16.77;7.68;;;;;;;23.83;51.25;102267.53;6183881;23;20380;-78
2021/09/05 09:51:34;;;;;;;16.42;8.55;;;;;;;24.20;48.78;102267.84;6185451;23;20028;-77
2021/09/05 09:54:00;;;;;;;15.43;7.55;;;;;;;24.22;48.12;102268.69;6158415;23;20012;-77
2021/09/05 09:56:27;;;;;;;14.88;7.13;;;;;;;25.16;48.26;102259.69;6184341;23;20009;-76
2021/09/05 09:59:04;;;;;;;14.65;7.38;;;;;;;25.51;45.28;102258.91;6184326;23;20072;-77
2021/09/05 10:01:33;;;;;;;11.82;7.03;;;;;;;25.17;45.06;102266.88;6179516;23;20087;-78
2021/09/05 10:04:01;;;;;;;10.90;7.32;;;;;;;25.83;44.16;102267.13;6182714;23;20017;-77
2021/09/05 10:06:33;;;;;;;17.13;6.82;;;;;;;26.10;42.39;102254.81;6183539;23;20008;-76
2021/09/05 10:09:22;;;;;;;18.57;6.57;;;;;;;26.03;43.95;102262.19;6157555;23;20049;-76
2021/09/05 10:11:48;;;;;;;10.10;6.68;;;;;;;26.87;41.04;102263.53;6182615;23;20083;-76
2021/09/05 10:14:13;;;;;;;12.40;6.78;;;;;;;26.81;40.35;102258.28;6184215;23;20013;-76
2021/09/05 10:16:42;;;;;;;9.80;6.00;;;;;;;27.14;39.83;102262.72;6157211;23;20005;-76
2021/09/05 10:19:08;;;;;;;15.35;7.18;;;;;;;27.41;38.51;102263.72;6184275;23;20009;-77
2021/09/05 10:21:36;;;;;;;10.95;6.75;;;;;;;26.52;39.59;102276.16;6182678;23;20336;-79
2021/09/05 10:24:02;;;;;;;13.23;7.25;;;;;;;27.34;38.03;102264.81;6184865;23;20009;-78
2021/09/05 10:27:00;;;;;;;14.02;6.97;;;;;;;27.22;38.94;102269.66;6183638;23;20425;-79
2021/09/05 10:29:25;;;;;;;11.38;7.55;;;;;;;26.99;40.17;102264.94;6184780;23;20013;-80
2021/09/05 10:31:51;;;;;;;17.58;7.85;;;;;;;26.86;41.14;102269.84;6184792;23;20039;-78
2021/09/05 10:34:37;;;;;;;11.93;6.85;;;;;;;27.52;40.22;102258.84;6185091;23;20008;-80
2021/09/05 10:37:11;;;;;;;11.05;6.07;;;;;;;27.75;38.78;102257.19;6183817;23;20428;-79
2021/09/05 10:40:06;;;;;;;13.85;6.57;;;;;;;28.04;39.97;102258.97;6184254;23;20016;-80
2021/09/05 10:42:32;;;;;;;13.68;6.93;;;;;;;28.25;38.10;102262.72;6184767;23;20012;-77
2021/09/05 10:45:06;;;;;;;12.68;7.22;;;;;;;28.64;36.34;102264.09;6183371;23;20009;-80
2021/09/05 10:47:44;;;;;;;9.52;6.53;;;;;;;28.33;36.74;102264.28;6185324;23;20024;-77
2021/09/05 10:50:33;;;;;;;15.60;7.25;;;;;;;29.20;35.38;102261.97;6185708;23;20043;-79
2021/09/05 10:53:16;;;;;;;12.63;7.45;;;;;;;28.50;36.92;102267.28;6185526;23;20001;-80
2021/09/05 10:56:08;;;;;;;15.45;7.25;;;;;;;29.38;34.52;102255.84;6183843;23;20084;-77
2021/09/05 10:58:38;;;;;;;11.88;6.65;;;;;;;28.86;38.09;102264.16;6185185;23;20021;-80
2021/09/05 11:01:19;;;;;;;11.55;6.80;;;;;;;29.03;36.98;102259.91;6180916;23;20001;-78
2021/09/05 11:04:09;;;;;;;13.40;7.03;;;;;;;28.78;36.12;102255.44;6184933;23;20005;-81
2021/09/05 11:06:56;;;;;;;13.68;6.60;;;;;;;29.25;37.22;102260.88;6184438;23;20325;-78
2021/09/05 11:09:24;;;;;;;10.18;6.45;;;;;;;29.62;34.72;102254.91;6184819;23;20017;-80
2021/09/05 11:12:15;;;;;;;14.50;7.15;;;;;;;29.33;34.63;102251.53;6184813;23;20420;-81
2021/09/05 11:14:45;;;;;;;11.27;6.93;;;;;;;29.36;37.21;102256.84;6186656;23;20012;-81
2021/09/05 11:17:12;;;;;;;7.47;5.30;;;;;;;29.86;33.26;102250.31;6184520;23;20263;-78
2021/09/05 11:19:45;;;;;;;10.43;7.13;;;;;;;30.48;32.75;102243.09;6158703;23;20009;-80
2021/09/05 11:22:11;;;;;;;10.70;5.43;;;;;;;30.08;31.08;102234.84;6185349;23;20505;-83
2021/09/05 11:24:40;;;;;;;9.55;5.85;;;;;;;29.77;34.61;102241.56;6184735;23;20020;-82